createdAt,value
2023-03-04T00:00:02.132Z,0.50
2023-03-04T00:02:29.175Z,0.40
2023-03-04T00:04:55.962Z,0.50
2023-03-04T00:07:23.046Z,0.50
2023-03-04T00:09:49.885Z,0.50
2023-03-04T00:12:16.770Z,0.50
2023-03-04T00:14:47.100Z,0.50
2023-03-04T00:17:14.341Z,0.50
2023-03-04T00:19:41.169Z,0.50
2023-03-04T00:22:08.072Z,0.50
2023-03-04T00:24:35.314Z,0.50
2023-03-04T00:27:02.144Z,0.50
2023-03-04T00:29:29.025Z,0.50
2023-03-04T00:31:55.909Z,0.50
2023-03-04T00:34:22.996Z,0.50
2023-03-04T00:36:49.877Z,0.50
2023-03-04T00:39:16.817Z,0.60
2023-03-04T00:41:45.106Z,0.60
2023-03-04T00:44:12.352Z,0.50
2023-03-04T00:46:39.566Z,0.50
2023-03-04T00:49:06.422Z,0.50
2023-03-04T00:51:33.637Z,0.50
2023-03-04T00:54:01.084Z,0.60
2023-03-04T00:56:28.278Z,0.60
2023-03-04T00:58:55.496Z,0.60
2023-03-04T01:01:22.384Z,0.60
2023-03-04T01:03:49.563Z,0.60
2023-03-04T01:06:16.559Z,0.60
2023-03-04T01:08:43.479Z,0.60
2023-03-04T01:11:10.789Z,0.60
2023-03-04T01:13:38.015Z,0.60
2023-03-04T01:16:05.525Z,0.60
2023-03-04T01:18:32.972Z,0.70
2023-03-04T01:20:59.987Z,0.60
2023-03-04T01:23:26.902Z,0.60
2023-03-04T01:25:53.865Z,0.60
2023-03-04T01:28:20.792Z,0.60
2023-03-04T01:30:47.705Z,0.60
2023-03-04T01:33:14.652Z,0.60
2023-03-04T01:35:41.593Z,0.50
2023-03-04T01:38:08.531Z,0.50
2023-03-04T01:40:35.435Z,0.50
2023-03-04T01:43:02.304Z,0.50
2023-03-04T01:45:30.251Z,0.50
2023-03-04T01:47:57.178Z,0.40
2023-03-04T01:50:35.721Z,0.50
2023-03-04T01:53:03.478Z,0.50
2023-03-04T01:55:31.185Z,0.40
2023-03-04T01:57:58.160Z,0.40
2023-03-04T02:00:33.898Z,0.40
2023-03-04T02:03:21.087Z,0.40
2023-03-04T02:05:52.991Z,0.40
2023-03-04T02:08:23.009Z,0.40
2023-03-04T02:10:51.214Z,0.40
2023-03-04T02:13:18.429Z,0.40
2023-03-04T02:15:46.484Z,0.30
2023-03-04T02:18:18.046Z,0.40
2023-03-04T02:21:15.396Z,0.40
2023-03-04T02:24:07.126Z,0.40
2023-03-04T02:26:35.246Z,0.40
2023-03-04T02:29:03.632Z,0.40
2023-03-04T02:31:32.269Z,0.50
2023-03-04T02:34:02.599Z,0.40
2023-03-04T02:36:30.019Z,0.50
2023-03-04T02:39:07.186Z,0.50
2023-03-04T02:41:34.843Z,0.50
2023-03-04T02:44:01.642Z,0.50
2023-03-04T02:46:28.565Z,0.60
2023-03-04T02:48:55.553Z,0.60
2023-03-04T02:51:22.458Z,0.60
2023-03-04T02:53:49.292Z,0.70
2023-03-04T02:56:16.774Z,0.70
2023-03-04T02:58:43.585Z,0.70
2023-03-04T03:01:10.487Z,0.80
2023-03-04T03:03:37.303Z,0.80
2023-03-04T03:06:04.425Z,0.80
2023-03-04T03:08:31.254Z,0.80
2023-03-04T03:10:58.080Z,0.90
2023-03-04T03:13:24.920Z,0.90
2023-03-04T03:15:51.812Z,0.90
2023-03-04T03:18:18.762Z,0.90
2023-03-04T03:20:45.602Z,1.00
2023-03-04T03:23:12.771Z,1.00
2023-03-04T03:25:39.581Z,1.00
2023-03-04T03:28:06.587Z,1.00
2023-03-04T03:30:33.625Z,1.00
2023-03-04T03:33:01.589Z,1.00
2023-03-04T03:35:29.899Z,1.10
2023-03-04T03:37:56.805Z,1.10
2023-03-04T03:40:23.702Z,1.10
2023-03-04T03:42:50.575Z,1.10
2023-03-04T03:45:18.819Z,1.10
2023-03-04T03:47:45.888Z,1.10
2023-03-04T03:50:12.803Z,1.20
2023-03-04T03:52:39.587Z,1.20
2023-03-04T03:55:06.841Z,1.20
2023-03-04T03:57:33.700Z,1.20
2023-03-04T04:00:00.501Z,1.30
2023-03-04T04:02:27.439Z,1.30
2023-03-04T04:04:54.415Z,1.20
2023-03-04T04:07:22.668Z,1.30
2023-03-04T04:09:49.527Z,1.30
2023-03-04T04:12:18.829Z,1.30
2023-03-04T04:14:45.935Z,1.30
2023-03-04T04:17:13.972Z,1.30
2023-03-04T04:19:41.179Z,1.30
2023-03-04T04:22:17.480Z,1.40
2023-03-04T04:24:44.269Z,1.40
2023-03-04T04:27:11.272Z,1.40
2023-03-04T04:29:38.385Z,1.40
2023-03-04T04:32:05.827Z,1.40
2023-03-04T04:34:32.642Z,1.40
2023-03-04T04:36:59.496Z,1.40
2023-03-04T04:39:26.355Z,1.40
2023-03-04T04:41:53.246Z,1.50
2023-03-04T04:44:20.066Z,1.50
2023-03-04T04:46:46.890Z,1.50
2023-03-04T04:49:13.671Z,1.40
2023-03-04T04:51:41.781Z,1.50
2023-03-04T04:54:08.733Z,1.50
2023-03-04T04:56:35.672Z,1.50
2023-03-04T04:59:07.452Z,1.50
2023-03-04T05:01:34.917Z,1.50
2023-03-04T05:04:01.938Z,1.50
2023-03-04T05:06:28.866Z,1.60
2023-03-04T05:08:55.880Z,1.60
2023-03-04T05:11:22.996Z,1.60
2023-03-04T05:13:50.117Z,1.60
2023-03-04T05:16:17.900Z,1.50
2023-03-04T05:18:44.890Z,1.50
2023-03-04T05:21:12.405Z,1.60
2023-03-04T05:23:41.344Z,1.50
2023-03-04T05:26:11.347Z,1.60
2023-03-04T05:28:38.191Z,1.50
2023-03-04T05:31:05.351Z,1.60
2023-03-04T05:33:32.321Z,1.60
2023-03-04T05:35:59.222Z,1.60
2023-03-04T05:38:26.319Z,1.50
2023-03-04T05:41:01.547Z,1.60
2023-03-04T05:43:30.784Z,1.60
2023-03-04T05:45:57.688Z,1.60
2023-03-04T05:48:24.477Z,1.70
2023-03-04T05:50:59.478Z,1.70
2023-03-04T05:53:26.863Z,1.70
2023-03-04T05:55:53.939Z,1.70
2023-03-04T05:58:21.818Z,1.60
2023-03-04T06:00:48.814Z,1.60
2023-03-04T06:03:20.846Z,1.70
2023-03-04T06:05:48.709Z,1.70
2023-03-04T06:08:15.523Z,1.60
2023-03-04T06:10:42.788Z,1.60
2023-03-04T06:13:10.207Z,1.60
2023-03-04T06:15:38.315Z,1.60
2023-03-04T06:18:06.372Z,1.60
2023-03-04T06:20:34.132Z,1.60
2023-03-04T06:23:01.000Z,1.60
2023-03-04T06:25:28.001Z,1.70
2023-03-04T06:27:55.293Z,1.70
2023-03-04T06:30:22.636Z,1.70
2023-03-04T06:32:49.676Z,1.70
2023-03-04T06:35:17.115Z,1.70
2023-03-04T06:37:44.081Z,1.70
2023-03-04T06:40:11.672Z,1.60
2023-03-04T06:42:40.270Z,1.70
2023-03-04T06:45:08.330Z,1.70
2023-03-04T06:47:35.380Z,1.70
2023-03-04T06:50:03.703Z,1.70
2023-03-04T06:52:31.599Z,1.70
2023-03-04T06:54:58.478Z,1.70
2023-03-04T06:57:25.290Z,1.70
2023-03-04T06:59:52.130Z,1.70
2023-03-04T07:02:18.992Z,1.80
2023-03-04T07:04:46.011Z,1.70
2023-03-04T07:07:13.731Z,1.70
2023-03-04T07:09:40.774Z,1.70
2023-03-04T07:12:07.833Z,1.80
2023-03-04T07:14:34.615Z,1.80
2023-03-04T07:17:01.468Z,1.80
2023-03-04T07:19:28.463Z,1.80
2023-03-04T07:21:55.386Z,1.90
2023-03-04T07:24:22.180Z,1.90
2023-03-04T07:26:48.948Z,1.80
2023-03-04T07:29:15.792Z,1.80
2023-03-04T07:31:42.780Z,1.90
2023-03-04T07:34:13.874Z,1.90
2023-03-04T07:36:41.833Z,1.80
2023-03-04T07:39:09.460Z,1.90
2023-03-04T07:41:37.547Z,1.90
2023-03-04T07:44:05.546Z,1.80
2023-03-04T07:46:32.991Z,1.90
2023-03-04T07:49:00.121Z,1.90
2023-03-04T07:51:30.222Z,2.00
2023-03-04T07:54:00.032Z,2.00
2023-03-04T07:56:29.979Z,2.00
2023-03-04T07:58:56.881Z,1.90
2023-03-04T08:01:29.984Z,1.90
2023-03-04T08:03:57.688Z,2.00
2023-03-04T08:06:25.893Z,2.00
2023-03-04T08:08:58.533Z,2.00
2023-03-04T08:11:27.100Z,2.00
2023-03-04T08:13:54.693Z,2.00
2023-03-04T08:16:23.554Z,2.10
2023-03-04T08:18:55.751Z,2.00
2023-03-04T08:21:24.382Z,2.00
2023-03-04T08:23:52.565Z,2.10
2023-03-04T08:26:33.921Z,2.10
2023-03-04T08:29:02.897Z,2.10
2023-03-04T08:31:29.849Z,2.10
2023-03-04T08:33:56.905Z,2.10
2023-03-04T08:36:23.783Z,2.20
2023-03-04T08:38:50.748Z,2.10
2023-03-04T08:41:17.743Z,2.20
2023-03-04T08:43:44.791Z,2.10
2023-03-04T08:46:11.934Z,2.20
2023-03-04T08:48:38.902Z,2.20
2023-03-04T08:51:14.343Z,2.20
2023-03-04T08:53:41.431Z,2.20
2023-03-04T08:56:09.386Z,2.10
2023-03-04T08:58:36.267Z,2.20
2023-03-04T09:01:04.462Z,2.10
2023-03-04T09:03:31.337Z,2.20
2023-03-04T09:05:58.272Z,2.20
2023-03-04T09:08:25.376Z,2.10
2023-03-04T09:10:56.174Z,2.10
2023-03-04T09:13:26.162Z,2.20
2023-03-04T09:15:54.066Z,2.20
2023-03-04T09:18:22.825Z,2.20
2023-03-04T09:20:50.192Z,2.30
2023-03-04T09:23:17.914Z,2.30
2023-03-04T09:25:47.446Z,2.30
2023-03-04T09:28:16.291Z,2.30
2023-03-04T09:30:46.258Z,2.40
2023-03-04T09:33:13.670Z,2.40
2023-03-04T09:35:40.740Z,2.40
2023-03-04T09:38:07.856Z,2.40
2023-03-04T09:40:44.034Z,2.40
2023-03-04T09:43:29.520Z,2.50
2023-03-04T09:46:00.298Z,2.60
2023-03-04T09:48:40.377Z,2.50
2023-03-04T09:51:32.605Z,2.50
2023-03-04T09:54:15.307Z,2.60
2023-03-04T09:56:42.599Z,2.60
2023-03-04T09:59:27.243Z,2.50
2023-03-04T10:01:59.589Z,2.50
2023-03-04T10:04:47.322Z,2.60
2023-03-04T10:07:29.694Z,2.50
2023-03-04T10:10:02.878Z,2.50
2023-03-04T10:12:35.861Z,2.50
2023-03-04T10:15:07.213Z,2.60
2023-03-04T10:17:51.729Z,2.60
2023-03-04T10:20:23.666Z,2.60
2023-03-04T10:22:53.454Z,2.70
2023-03-04T10:25:29.984Z,2.70
2023-03-04T10:28:05.053Z,2.90
2023-03-04T10:30:34.872Z,2.80
2023-03-04T10:33:02.786Z,2.90
2023-03-04T10:35:37.558Z,2.90
2023-03-04T10:38:04.878Z,2.90
2023-03-04T10:40:38.199Z,2.90
2023-03-04T10:43:08.166Z,3.00
2023-03-04T10:45:39.779Z,2.90
2023-03-04T10:48:16.790Z,2.90
2023-03-04T10:50:43.620Z,2.90
2023-03-04T10:53:36.672Z,3.00
2023-03-04T10:56:03.786Z,3.10
2023-03-04T10:58:30.763Z,3.10
2023-03-04T11:01:03.817Z,3.00
2023-03-04T11:03:36.622Z,3.10
2023-03-04T11:06:17.627Z,3.10
2023-03-04T11:08:45.064Z,3.10
2023-03-04T11:11:46.042Z,3.00
2023-03-04T11:14:19.876Z,3.00
2023-03-04T11:16:55.655Z,3.00
2023-03-04T11:19:37.546Z,3.00
2023-03-04T11:22:05.401Z,3.00
2023-03-04T11:24:38.665Z,3.00
2023-03-04T11:27:11.588Z,3.00
2023-03-04T11:29:44.076Z,3.10
2023-03-04T11:32:42.089Z,3.10
2023-03-04T11:35:49.522Z,3.20
2023-03-04T11:38:16.394Z,3.30
2023-03-04T11:40:47.590Z,3.20
2023-03-04T11:43:40.014Z,3.40
2023-03-04T11:46:25.877Z,3.40
2023-03-04T11:48:57.041Z,3.40
2023-03-04T11:51:52.470Z,3.40
2023-03-04T11:54:46.375Z,3.40
2023-03-04T11:57:37.235Z,3.30
2023-03-04T12:00:16.198Z,3.30
2023-03-04T12:03:02.975Z,3.30
2023-03-04T12:05:48.205Z,3.40
2023-03-04T12:08:33.146Z,3.40
2023-03-04T12:11:02.642Z,3.40
2023-03-04T12:13:57.010Z,3.40
2023-03-04T12:17:10.540Z,3.30
2023-03-04T12:20:08.771Z,3.10
2023-03-04T12:22:45.173Z,3.10
2023-03-04T12:25:30.654Z,3.00
2023-03-04T12:28:21.401Z,3.00
2023-03-04T12:31:01.715Z,3.00
2023-03-04T12:33:46.794Z,3.00
2023-03-04T12:36:37.530Z,3.10
2023-03-04T12:39:31.020Z,2.90
2023-03-04T12:42:30.523Z,3.00
2023-03-04T12:45:15.861Z,2.90
2023-03-04T12:48:11.201Z,2.70
2023-03-04T12:50:48.553Z,2.80
2023-03-04T12:53:30.379Z,2.80
2023-03-04T12:55:59.512Z,2.90
2023-03-04T12:58:29.849Z,2.90
2023-03-04T13:01:16.862Z,3.00
2023-03-04T13:03:59.602Z,3.00
2023-03-04T13:06:47.910Z,3.20
2023-03-04T13:09:32.898Z,3.30
2023-03-04T13:12:16.045Z,3.30
2023-03-04T13:15:08.648Z,3.20
2023-03-04T13:17:58.044Z,3.30
2023-03-04T13:20:32.284Z,3.40
2023-03-04T13:23:06.027Z,3.60
2023-03-04T13:25:35.887Z,3.70
2023-03-04T13:28:05.364Z,3.60
2023-03-04T13:30:33.276Z,3.50
2023-03-04T13:33:14.866Z,3.50
2023-03-04T13:36:04.230Z,3.70
2023-03-04T13:38:31.305Z,3.80
2023-03-04T13:41:15.463Z,3.90
2023-03-04T13:43:55.297Z,4.10
2023-03-04T13:46:26.961Z,3.90
2023-03-04T13:48:57.289Z,4.00
2023-03-04T13:51:32.876Z,4.00
2023-03-04T13:53:59.628Z,4.00
2023-03-04T13:56:51.122Z,4.10
2023-03-04T13:59:27.437Z,3.90
2023-03-04T14:02:12.582Z,3.80
2023-03-04T14:04:42.395Z,3.80
2023-03-04T14:07:30.121Z,3.30
2023-03-04T14:09:58.692Z,2.60
2023-03-04T14:12:27.986Z,2.40
2023-03-04T14:15:01.013Z,2.50
2023-03-04T14:17:39.304Z,2.80
2023-03-04T14:20:25.853Z,3.10
2023-03-04T14:22:53.318Z,3.30
2023-03-04T14:25:24.905Z,3.40
2023-03-04T14:28:03.098Z,3.60
2023-03-04T14:30:42.253Z,3.60
2023-03-04T14:33:17.780Z,3.70
2023-03-04T14:35:50.611Z,4.00
2023-03-04T14:38:32.337Z,4.10
2023-03-04T14:41:02.726Z,4.20
2023-03-04T14:43:31.142Z,4.10
2023-03-04T14:45:59.664Z,4.20
2023-03-04T14:48:33.657Z,4.20
2023-03-04T14:51:02.407Z,4.10
2023-03-04T14:53:31.747Z,4.00
2023-03-04T14:56:08.359Z,3.70
2023-03-04T14:58:37.008Z,3.70
2023-03-04T15:01:17.561Z,3.60
2023-03-04T15:03:54.381Z,3.60
2023-03-04T15:06:23.948Z,3.50
2023-03-04T15:09:09.259Z,3.60
2023-03-04T15:11:51.754Z,3.60
2023-03-04T15:14:47.990Z,3.60
2023-03-04T15:17:42.963Z,3.70
2023-03-04T15:20:09.844Z,3.70
2023-03-04T15:22:55.919Z,3.70
2023-03-04T15:25:24.413Z,3.70
2023-03-04T15:27:51.920Z,3.60
2023-03-04T15:30:27.568Z,3.70
2023-03-04T15:32:58.649Z,3.60
2023-03-04T15:35:29.124Z,3.60
2023-03-04T15:37:57.758Z,3.60
2023-03-04T15:40:33.766Z,3.60
2023-03-04T15:43:03.197Z,3.50
2023-03-04T15:45:32.922Z,3.40
2023-03-04T15:47:59.760Z,3.40
2023-03-04T15:50:30.139Z,3.30
2023-03-04T15:53:02.143Z,3.30
2023-03-04T15:55:30.993Z,3.30
2023-03-04T15:58:01.437Z,3.20
2023-03-04T16:00:32.520Z,3.10
2023-03-04T16:03:02.208Z,2.90
2023-03-04T16:05:29.081Z,2.80
2023-03-04T16:07:56.106Z,2.70
2023-03-04T16:10:27.693Z,2.60
2023-03-04T16:12:55.087Z,2.50
2023-03-04T16:15:24.848Z,2.40
2023-03-04T16:17:52.980Z,2.30
2023-03-04T16:20:23.002Z,2.20
2023-03-04T16:22:54.361Z,2.10
2023-03-04T16:25:22.177Z,2.10
2023-03-04T16:27:51.346Z,2.00
2023-03-04T16:30:21.927Z,2.00
2023-03-04T16:32:48.938Z,1.90
2023-03-04T16:35:19.722Z,1.90
2023-03-04T16:37:48.695Z,1.80
2023-03-04T16:40:24.070Z,1.70
2023-03-04T16:42:51.087Z,1.60
2023-03-04T16:45:21.027Z,1.50
2023-03-04T16:47:48.130Z,1.50
2023-03-04T16:50:21.071Z,1.50
2023-03-04T16:52:49.510Z,1.40
2023-03-04T16:55:20.416Z,1.30
2023-03-04T16:57:48.213Z,1.30
2023-03-04T17:00:17.488Z,1.40
2023-03-04T17:02:46.143Z,1.20
2023-03-04T17:05:18.411Z,1.10
2023-03-04T17:07:46.164Z,1.10
2023-03-04T17:10:14.693Z,1.10
2023-03-04T17:12:42.150Z,1.00
2023-03-04T17:15:13.770Z,1.00
2023-03-04T17:17:41.569Z,0.90
2023-03-04T17:20:11.254Z,0.90
2023-03-04T17:22:38.097Z,1.00
2023-03-04T17:25:05.461Z,1.00
2023-03-04T17:27:32.486Z,1.00
2023-03-04T17:30:00.123Z,1.00
2023-03-04T17:32:34.342Z,0.90
2023-03-04T17:35:03.125Z,0.80
2023-03-04T17:37:31.644Z,0.90
2023-03-04T17:39:58.839Z,0.80
2023-03-04T17:42:27.305Z,0.80
2023-03-04T17:44:54.116Z,0.70
2023-03-04T17:47:22.686Z,0.70
2023-03-04T17:49:52.232Z,0.70
2023-03-04T17:52:19.635Z,0.70
2023-03-04T17:54:46.967Z,0.70
2023-03-04T17:57:14.009Z,0.70
2023-03-04T17:59:40.851Z,0.60
2023-03-04T18:02:15.596Z,0.60
2023-03-04T18:04:45.181Z,0.50
2023-03-04T18:07:12.029Z,0.40
2023-03-04T18:09:39.908Z,0.40
2023-03-04T18:12:07.177Z,0.40
2023-03-04T18:14:34.316Z,0.40
2023-03-04T18:17:01.142Z,0.40
2023-03-04T18:19:28.694Z,0.40
2023-03-04T18:21:55.450Z,0.40
2023-03-04T18:24:22.349Z,0.30
2023-03-04T18:26:49.437Z,0.30
2023-03-04T18:29:16.299Z,0.20
2023-03-04T18:31:43.544Z,0.20
2023-03-04T18:34:11.854Z,0.20
2023-03-04T18:36:38.730Z,0.20
2023-03-04T18:39:07.406Z,0.10
2023-03-04T18:41:34.409Z,0.10
2023-03-04T18:44:01.363Z,0.10
2023-03-04T18:46:52.130Z,0.00
2023-03-04T18:49:22.091Z,0.00
2023-03-04T18:51:49.229Z,0.00
2023-03-04T18:54:16.093Z,0.00
2023-03-04T18:56:50.688Z,0.00
2023-03-04T18:59:24.284Z,-0.10
2023-03-04T19:01:52.996Z,0.00
2023-03-04T19:04:22.937Z,-0.10
2023-03-04T19:06:50.061Z,-0.20
2023-03-04T19:09:16.916Z,-0.30
2023-03-04T19:11:47.327Z,-0.30
2023-03-04T19:14:14.317Z,-0.30
2023-03-04T19:16:41.643Z,-0.40
2023-03-04T19:19:09.005Z,-0.40
2023-03-04T19:21:40.465Z,-0.40
2023-03-04T19:24:08.021Z,-0.40
2023-03-04T19:26:35.669Z,-0.30
2023-03-04T19:29:02.590Z,-0.40
2023-03-04T19:31:29.792Z,-0.50
2023-03-04T19:33:57.251Z,-0.50
2023-03-04T19:36:25.521Z,-0.40
2023-03-04T19:38:52.309Z,-0.40
2023-03-04T19:41:19.652Z,-0.50
2023-03-04T19:43:46.463Z,-0.50
2023-03-04T19:46:14.228Z,-0.50
2023-03-04T19:48:47.070Z,-0.50
2023-03-04T19:51:20.069Z,-0.60
2023-03-04T19:53:48.011Z,-0.70
2023-03-04T19:56:15.372Z,-0.70
2023-03-04T19:58:42.558Z,-0.70
2023-03-04T20:01:34.780Z,-0.70
2023-03-04T20:04:05.715Z,-0.70
2023-03-04T20:06:36.755Z,-0.80
2023-03-04T20:09:03.880Z,-0.80
2023-03-04T20:11:39.243Z,-0.80
2023-03-04T20:14:11.019Z,-0.80
2023-03-04T20:16:37.971Z,-0.90
2023-03-04T20:19:04.803Z,-0.90
2023-03-04T20:21:33.473Z,-1.00
2023-03-04T20:24:01.607Z,-1.00
2023-03-04T20:26:31.287Z,-1.10
2023-03-04T20:29:03.293Z,-1.10
2023-03-04T20:31:32.397Z,-1.10
2023-03-04T20:33:59.991Z,-1.20
2023-03-04T20:36:31.083Z,-1.10
2023-03-04T20:39:02.576Z,-1.10
2023-03-04T20:41:32.201Z,-1.20
2023-03-04T20:43:59.209Z,-1.30
2023-03-04T20:46:42.968Z,-1.30
2023-03-04T20:49:32.795Z,-1.30
2023-03-04T20:52:08.051Z,-1.30
2023-03-04T20:54:37.425Z,-1.40
2023-03-04T20:57:08.105Z,-1.30
2023-03-04T20:59:36.190Z,-1.30
2023-03-04T21:02:03.057Z,-1.40
2023-03-04T21:04:32.540Z,-1.50
2023-03-04T21:07:01.486Z,-1.50
2023-03-04T21:09:29.253Z,-1.50
2023-03-04T21:11:56.528Z,-1.60
2023-03-04T21:14:25.914Z,-1.50
2023-03-04T21:17:00.861Z,-1.60
2023-03-04T21:19:33.731Z,-1.60
2023-03-04T21:22:01.729Z,-1.60
2023-03-04T21:24:32.496Z,-1.60
2023-03-04T21:26:59.626Z,-1.60
2023-03-04T21:29:30.777Z,-1.60
2023-03-04T21:32:23.877Z,-1.60
2023-03-04T21:34:55.708Z,-1.60
2023-03-04T21:37:24.923Z,-1.60
2023-03-04T21:39:52.219Z,-1.70
2023-03-04T21:42:22.844Z,-1.60
2023-03-04T21:44:53.057Z,-1.60
2023-03-04T21:47:21.723Z,-1.60
2023-03-04T21:49:49.547Z,-1.60
2023-03-04T21:52:20.614Z,-1.60
2023-03-04T21:54:48.087Z,-1.60
2023-03-04T21:57:15.669Z,-1.80
2023-03-04T21:59:42.449Z,-1.80
2023-03-04T22:02:18.307Z,-1.80
2023-03-04T22:04:45.228Z,-1.80
2023-03-04T22:07:12.912Z,-1.80
2023-03-04T22:09:39.890Z,-1.70
2023-03-04T22:12:06.913Z,-1.70
2023-03-04T22:14:33.831Z,-1.70
2023-03-04T22:17:00.726Z,-1.70
2023-03-04T22:19:31.736Z,-1.80
2023-03-04T22:22:01.026Z,-1.80
2023-03-04T22:24:27.967Z,-1.80
2023-03-04T22:26:56.902Z,-1.80
2023-03-04T22:29:24.019Z,-1.80
2023-03-04T22:31:51.276Z,-1.70
2023-03-04T22:34:19.673Z,-1.80
2023-03-04T22:36:47.199Z,-1.90
2023-03-04T22:42:11.487Z,-1.70
2023-03-04T22:45:13.802Z,-1.90
2023-03-04T22:47:58.810Z,-1.90
2023-03-04T22:50:30.202Z,-2.00
2023-03-04T22:52:57.188Z,-1.90
2023-03-04T22:55:24.328Z,-1.90
2023-03-04T22:57:51.173Z,-2.00
2023-03-04T23:00:26.580Z,-2.00
2023-03-04T23:02:54.064Z,-2.00
2023-03-04T23:05:23.126Z,-2.00
2023-03-04T23:07:51.561Z,-2.00
2023-03-04T23:10:22.173Z,-2.00
2023-03-04T23:12:49.550Z,-2.10
2023-03-04T23:15:18.124Z,-2.10
2023-03-04T23:17:45.250Z,-2.20
2023-03-04T23:20:18.938Z,-2.30
2023-03-04T23:22:47.143Z,-2.20
2023-03-04T23:25:15.155Z,-2.20
2023-03-04T23:27:42.363Z,-2.20
2023-03-04T23:30:15.352Z,-2.20
2023-03-04T23:32:43.161Z,-2.20
2023-03-04T23:35:10.126Z,-2.20
2023-03-04T23:37:37.039Z,-2.20
2023-03-04T23:40:04.302Z,-2.20
2023-03-04T23:42:31.297Z,-2.30
2023-03-04T23:44:58.223Z,-2.20
2023-03-04T23:47:25.133Z,-2.30
2023-03-04T23:49:52.152Z,-2.30
2023-03-04T23:52:19.011Z,-2.20
2023-03-04T23:54:48.558Z,-2.30
2023-03-04T23:57:15.427Z,-2.30
2023-03-04T23:59:42.183Z,-2.30
